Time;durP1;ratioP1;P1;durP2;ratioP2;P2;SDS_P1;SDS_P2;PMS_P1;PMS_P2;Temp;Humidity;BMP_temperature;BMP_pressure;BME280_temperature;BME280_humidity;BME280_pressure;Samples;Min_cycle;Max_cycle;Signal;HPM_P1;HPM_P2
2023/12/27 00:01:30;;;;;;;38.55;23.92;;;1.20;99.90;;;;;;5013147;28;20529;-76
2023/12/27 00:03:56;;;;;;;13.23;6.18;;;1.20;99.90;;;;;;5014270;28;20064;-76
2023/12/27 00:06:21;;;;;;;15.30;6.30;;;1.20;99.90;;;;;;5014989;28;20120;-76
2023/12/27 00:08:47;;;;;;;43.35;28.70;;;1.10;99.90;;;;;;5015117;28;20052;-76
2023/12/27 00:11:17;;;;;;;35.90;23.25;;;1.20;99.90;;;;;;5013001;28;20535;-76
2023/12/27 00:13:43;;;;;;;16.98;6.10;;;1.20;99.90;;;;;;5013109;28;20033;-77
2023/12/27 00:16:09;;;;;;;31.90;20.98;;;1.20;99.90;;;;;;5009868;28;20403;-77
2023/12/27 00:18:35;;;;;;;18.20;8.25;;;1.20;99.90;;;;;;5015246;28;20136;-76
2023/12/27 00:21:00;;;;;;;27.60;9.07;;;1.30;99.90;;;;;;5014593;28;20533;-76
2023/12/27 00:23:27;;;;;;;35.20;25.00;;;1.30;99.90;;;;;;5014480;28;20079;-76
2023/12/27 00:25:53;;;;;;;101.15;13.95;;;1.40;99.90;;;;;;5011836;28;20504;-76
2023/12/27 00:28:19;;;;;;;21.65;8.32;;;1.40;99.90;;;;;;5013011;28;20034;-76
2023/12/27 00:30:48;;;;;;;25.45;9.85;;;1.40;99.90;;;;;;5013933;28;20033;-77
2023/12/27 00:33:17;;;;;;;26.55;8.32;;;1.40;99.90;;;;;;5014157;28;20076;-76
2023/12/27 00:35:43;;;;;;;31.70;23.05;;;1.40;99.90;;;;;;5014826;28;20099;-76
2023/12/27 00:38:09;;;;;;;33.58;23.15;;;1.30;99.90;;;;;;5013626;28;20476;-76
2023/12/27 00:40:34;;;;;;;34.35;22.42;;;1.30;99.90;;;;;;5014535;28;20042;-76
2023/12/27 00:43:00;;;;;;;19.33;8.25;;;1.30;99.90;;;;;;5013520;28;20045;-75
2023/12/27 00:45:25;;;;;;;30.77;8.00;;;1.20;99.90;;;;;;5014434;28;20045;-77
2023/12/27 00:47:52;;;;;;;33.45;24.08;;;1.20;99.90;;;;;;5030964;28;20484;-76
2023/12/27 00:50:18;;;;;;;16.67;6.47;;;1.20;99.90;;;;;;5013742;28;20045;-76
2023/12/27 00:52:44;;;;;;;36.95;26.02;;;1.30;99.90;;;;;;5029910;28;20034;-77
2023/12/27 00:55:10;;;;;;;17.80;6.55;;;1.10;99.90;;;;;;5014248;28;20037;-76
2023/12/27 00:57:35;;;;;;;19.58;7.28;;;1.20;99.90;;;;;;5014351;28;20377;-77
2023/12/27 01:00:01;;;;;;;65.28;42.38;;;1.10;99.90;;;;;;5030872;28;20037;-76
2023/12/27 01:02:26;;;;;;;42.70;29.55;;;1.20;99.90;;;;;;5013020;28;20037;-77
2023/12/27 01:04:55;;;;;;;15.68;7.35;;;1.10;99.90;;;;;;5003104;28;20316;-76
2023/12/27 01:07:22;;;;;;;19.95;7.72;;;1.10;99.90;;;;;;4994699;28;20085;-76
2023/12/27 01:09:48;;;;;;;14.57;7.05;;;1.10;99.90;;;;;;5001025;28;20077;-76
2023/12/27 01:12:14;;;;;;;24.80;7.97;;;1.00;99.90;;;;;;5013534;28;20037;-76
2023/12/27 01:14:39;;;;;;;45.58;31.92;;;1.00;99.90;;;;;;5013157;28;20050;-76
2023/12/27 01:17:08;;;;;;;16.10;6.60;;;1.00;99.90;;;;;;5029438;28;20066;-76
2023/12/27 01:19:35;;;;;;;36.85;25.92;;;0.90;99.90;;;;;;5014235;28;20033;-77
2023/12/27 01:22:00;;;;;;;39.50;26.80;;;0.90;99.90;;;;;;5013499;28;20450;-76
2023/12/27 01:24:26;;;;;;;14.35;8.32;;;0.90;99.90;;;;;;5012479;28;20037;-76
2023/12/27 01:26:52;;;;;;;22.10;8.48;;;0.90;99.90;;;;;;5010989;28;20045;-76
2023/12/27 01:29:18;;;;;;;64.68;49.63;;;0.90;99.90;;;;;;4999405;28;20041;-76
2023/12/27 01:31:46;;;;;;;59.55;44.95;;;0.90;99.90;;;;;;5013787;28;20080;-76
2023/12/27 01:34:12;;;;;;;20.35;9.52;;;0.90;99.90;;;;;;5032936;28;20034;-76
2023/12/27 01:36:37;;;;;;;59.42;47.70;;;0.80;99.90;;;;;;5017812;28;20124;-77
2023/12/27 01:39:03;;;;;;;16.52;7.72;;;0.80;99.90;;;;;;5016814;28;20072;-77
2023/12/27 01:41:28;;;;;;;12.63;7.22;;;0.80;99.90;;;;;;5017110;28;20465;-76
2023/12/27 01:43:54;;;;;;;31.92;28.33;;;0.80;99.90;;;;;;5017092;28;20071;-76
2023/12/27 01:46:20;;;;;;;46.08;38.03;;;0.80;99.90;;;;;;5017462;28;20045;-75
2023/12/27 01:48:48;;;;;;;11.40;6.90;;;0.70;99.90;;;;;;5034348;28;20042;-76
2023/12/27 01:51:13;;;;;;;13.68;6.07;;;0.80;99.90;;;;;;5015785;28;20053;-77
2023/12/27 01:53:40;;;;;;;49.65;37.58;;;0.70;99.90;;;;;;5016728;28;20538;-77
2023/12/27 01:56:07;;;;;;;11.23;6.20;;;0.70;99.90;;;;;;5017424;28;20041;-77
2023/12/27 01:58:34;;;;;;;8.65;5.90;;;0.60;99.90;;;;;;5017584;28;20431;-76
2023/12/27 02:00:59;;;;;;;32.58;26.83;;;0.50;99.90;;;;;;5017105;28;20052;-76
2023/12/27 02:03:25;;;;;;;40.47;32.40;;;0.50;99.90;;;;;;5033601;28;20033;-77
2023/12/27 02:05:53;;;;;;;8.13;5.45;;;0.50;99.90;;;;;;5032685;28;20496;-76
2023/12/27 02:08:19;;;;;;;9.32;6.13;;;0.50;99.90;;;;;;5019135;28;20038;-76
2023/12/27 02:10:46;;;;;;;8.55;5.75;;;0.40;99.90;;;;;;5030802;28;20095;-76
2023/12/27 02:13:12;;;;;;;12.38;5.57;;;0.30;99.90;;;;;;5016765;28;20041;-77
2023/12/27 02:15:38;;;;;;;34.45;29.95;;;0.30;99.90;;;;;;5030529;28;20044;-77
2023/12/27 02:18:05;;;;;;;9.27;5.97;;;0.30;99.90;;;;;;5012354;28;20117;-76
2023/12/27 02:20:32;;;;;;;10.75;5.43;;;0.30;99.90;;;;;;5012270;28;20091;-76
2023/12/27 02:23:01;;;;;;;42.65;35.75;;;0.30;99.90;;;;;;5016606;28;20046;-76
2023/12/27 02:25:27;;;;;;;10.48;6.05;;;0.20;99.90;;;;;;5016010;28;20044;-77
2023/12/27 02:27:53;;;;;;;12.57;6.10;;;0.20;99.90;;;;;;5015090;28;20045;-76
2023/12/27 02:30:20;;;;;;;49.63;40.00;;;0.20;99.90;;;;;;5016432;28;20412;-77
2023/12/27 02:32:46;;;;;;;20.20;7.30;;;0.20;99.90;;;;;;5016494;28;20049;-76
2023/12/27 02:35:16;;;;;;;12.50;6.35;;;0.20;99.90;;;;;;5032253;28;20033;-75
2023/12/27 02:37:41;;;;;;;13.85;6.45;;;0.30;99.90;;;;;;5007089;28;20030;-77
2023/12/27 02:40:08;;;;;;;65.00;49.15;;;0.40;99.90;;;;;;5009715;28;20049;-76
2023/12/27 02:42:38;;;;;;;21.58;8.57;;;0.40;99.90;;;;;;5016555;28;20041;-76
2023/12/27 02:45:05;;;;;;;47.40;39.03;;;0.50;99.90;;;;;;5016265;28;20044;-76
2023/12/27 02:47:31;;;;;;;16.25;8.70;;;0.50;99.90;;;;;;5016799;28;20041;-76
2023/12/27 02:49:56;;;;;;;13.15;8.27;;;0.60;99.90;;;;;;5015405;28;20044;-76
2023/12/27 02:52:22;;;;;;;23.45;7.90;;;0.70;99.90;;;;;;5016338;28;20041;-76
2023/12/27 02:54:48;;;;;;;18.55;8.98;;;0.70;99.90;;;;;;5016122;28;20044;-75
2023/12/27 02:57:13;;;;;;;19.80;8.45;;;0.70;99.90;;;;;;5016381;28;20172;-77
2023/12/27 02:59:39;;;;;;;21.40;8.75;;;0.80;99.90;;;;;;5016614;28;20045;-76
2023/12/27 03:02:05;;;;;;;63.75;51.42;;;0.90;99.90;;;;;;5014742;28;20072;-76
2023/12/27 03:04:30;;;;;;;69.03;51.58;;;0.90;99.90;;;;;;5015782;28;20120;-76
2023/12/27 03:06:56;;;;;;;21.40;9.70;;;1.00;99.90;;;;;;5016401;28;20052;-75
2023/12/27 03:09:24;;;;;;;20.95;8.90;;;1.00;99.90;;;;;;5016339;28;20069;-76
2023/12/27 03:11:50;;;;;;;58.20;47.05;;;0.90;99.90;;;;;;5016029;28;20463;-76
2023/12/27 03:14:16;;;;;;;84.38;62.67;;;1.00;99.90;;;;;;5014746;28;20039;-75
2023/12/27 03:16:42;;;;;;;51.70;45.42;;;1.00;99.90;;;;;;5014513;28;20124;-76
2023/12/27 03:19:08;;;;;;;17.05;8.68;;;1.00;99.90;;;;;;5001748;28;20030;-76
2023/12/27 03:21:35;;;;;;;16.50;7.40;;;0.90;99.90;;;;;;5015980;28;20045;-76
2023/12/27 03:24:01;;;;;;;59.95;45.72;;;0.90;99.90;;;;;;5015392;28;20045;-76
2023/12/27 03:26:27;;;;;;;56.45;46.42;;;0.80;99.90;;;;;;5015794;28;20384;-76
2023/12/27 03:28:52;;;;;;;13.00;7.78;;;0.90;99.90;;;;;;5014778;28;20081;-76
2023/12/27 03:31:22;;;;;;;15.65;8.23;;;0.90;99.90;;;;;;5015391;28;20045;-76
2023/12/27 03:33:47;;;;;;;42.65;38.05;;;0.80;99.90;;;;;;5015654;28;20041;-76
2023/12/27 03:36:13;;;;;;;15.70;7.75;;;0.80;99.90;;;;;;5016130;28;20502;-76
2023/12/27 03:38:39;;;;;;;19.05;8.48;;;1.00;99.90;;;;;;5015459;28;20041;-76
2023/12/27 03:41:04;;;;;;;25.58;10.57;;;1.10;99.90;;;;;;5015779;28;20037;-76
2023/12/27 03:43:30;;;;;;;32.72;11.15;;;1.10;99.90;;;;;;5014788;28;20073;-76
2023/12/27 03:45:55;;;;;;;118.20;73.97;;;1.10;99.90;;;;;;5004435;28;20053;-76
2023/12/27 03:48:21;;;;;;;26.30;10.57;;;1.10;99.90;;;;;;4996224;28;20551;-75
2023/12/27 03:50:49;;;;;;;27.83;10.20;;;1.10;99.90;;;;;;5014745;28;20072;-77
2023/12/27 03:53:19;;;;;;;81.07;60.05;;;1.00;99.90;;;;;;5013339;28;20033;-77
2023/12/27 03:55:45;;;;;;;26.80;11.07;;;1.10;99.90;;;;;;5014143;28;20407;-77
2023/12/27 03:58:13;;;;;;;85.07;62.22;;;1.10;99.90;;;;;;5015289;28;20092;-76
2023/12/27 04:00:39;;;;;;;21.13;10.73;;;1.10;99.90;;;;;;5014976;28;20448;-76
2023/12/27 04:03:04;;;;;;;104.32;70.03;;;1.10;99.90;;;;;;5014833;28;20037;-76
2023/12/27 04:05:30;;;;;;;102.40;68.90;;;1.10;99.90;;;;;;5015011;28;20053;-76
2023/12/27 04:07:56;;;;;;;22.20;10.13;;;1.10;99.90;;;;;;5014091;28;20038;-76
2023/12/27 04:10:21;;;;;;;21.00;10.52;;;1.10;99.90;;;;;;5014322;28;20049;-77
2023/12/27 04:12:47;;;;;;;90.97;66.10;;;1.10;99.90;;;;;;5014703;28;20073;-76
2023/12/27 04:15:12;;;;;;;75.90;58.42;;;1.20;99.90;;;;;;5014901;28;20037;-76
2023/12/27 04:17:39;;;;;;;23.05;11.00;;;1.20;99.90;;;;;;5030705;28;20057;-76
2023/12/27 04:20:05;;;;;;;99.90;73.80;;;1.20;99.90;;;;;;5031191;28;20052;-76
2023/12/27 04:22:33;;;;;;;94.00;68.40;;;1.30;99.90;;;;;;5013734;28;20480;-77
2023/12/27 04:24:58;;;;;;;85.70;63.95;;;1.30;99.90;;;;;;5014603;28;20045;-76
2023/12/27 04:27:27;;;;;;;30.27;11.55;;;1.30;99.90;;;;;;5015034;28;20494;-76
2023/12/27 04:29:52;;;;;;;24.85;10.73;;;1.30;99.90;;;;;;5014350;28;20167;-76
2023/12/27 04:32:18;;;;;;;20.90;9.98;;;1.30;99.90;;;;;;5014501;28;20046;-76
2023/12/27 04:34:43;;;;;;;90.43;69.43;;;1.30;99.90;;;;;;5014158;28;20040;-76
2023/12/27 04:37:09;;;;;;;98.68;70.22;;;1.40;99.90;;;;;;5014056;28;20042;-76
2023/12/27 04:39:35;;;;;;;100.45;70.70;;;1.40;99.90;;;;;;5007608;28;20066;-77
2023/12/27 04:42:01;;;;;;;17.63;9.85;;;1.40;99.90;;;;;;5014367;28;20041;-76
2023/12/27 04:44:26;;;;;;;74.07;60.13;;;1.40;99.90;;;;;;5014268;28;20436;-75
2023/12/27 04:46:52;;;;;;;128.20;85.88;;;1.40;99.90;;;;;;5014510;28;20049;-76
2023/12/27 04:49:17;;;;;;;64.00;56.10;;;1.50;99.90;;;;;;5014068;28;20484;-76
2023/12/27 04:51:45;;;;;;;67.30;56.58;;;1.50;99.90;;;;;;5013003;28;20045;-77
2023/12/27 04:54:13;;;;;;;30.83;11.65;;;1.50;99.90;;;;;;5030634;28;20045;-76
2023/12/27 04:56:38;;;;;;;28.13;11.10;;;1.60;99.90;;;;;;5014048;28;20038;-76
2023/12/27 04:59:04;;;;;;;25.23;10.70;;;1.60;99.90;;;;;;5030366;28;20048;-76
2023/12/27 05:01:30;;;;;;;58.60;52.30;;;1.60;99.90;;;;;;5012536;28;20091;-76
2023/12/27 05:03:55;;;;;;;69.47;56.25;;;1.60;99.90;;;;;;5013260;28;20083;-75
2023/12/27 05:06:21;;;;;;;72.65;61.60;;;1.70;99.90;;;;;;4999239;28;20041;-76
2023/12/27 05:08:47;;;;;;;99.80;73.47;;;1.70;99.90;;;;;;5000231;28;20041;-76
2023/12/27 05:11:15;;;;;;;29.67;13.93;;;1.70;99.90;;;;;;5012703;28;20044;-76
2023/12/27 05:13:41;;;;;;;25.30;12.25;;;1.70;99.90;;;;;;5013184;28;20038;-76
2023/12/27 05:16:15;;;;;;;27.90;11.73;;;1.70;99.90;;;;;;5013885;28;20037;-76
2023/12/27 05:18:41;;;;;;;27.58;12.50;;;1.70;99.90;;;;;;5029933;28;20135;-76
2023/12/27 05:21:08;;;;;;;67.20;58.38;;;1.70;99.90;;;;;;5013603;28;20041;-75
2023/12/27 05:23:34;;;;;;;90.45;74.30;;;1.80;99.90;;;;;;5030032;28;20080;-76
2023/12/27 05:26:00;;;;;;;85.85;71.07;;;1.80;99.90;;;;;;5013982;28;20033;-76
2023/12/27 05:28:26;;;;;;;109.03;85.82;;;1.90;99.90;;;;;;5011441;28;20196;-76
2023/12/27 05:30:52;;;;;;;34.15;15.43;;;1.90;99.90;;;;;;5014328;28;20081;-76
2023/12/27 05:33:18;;;;;;;82.85;69.13;;;1.90;99.90;;;;;;5013625;28;20050;-76
2023/12/27 05:35:43;;;;;;;21.40;12.65;;;1.90;99.90;;;;;;5014645;28;20033;-76
2023/12/27 05:38:09;;;;;;;111.22;84.32;;;1.90;99.90;;;;;;5011517;28;20041;-76
2023/12/27 05:40:34;;;;;;;68.68;61.55;;;2.00;99.90;;;;;;5014497;28;20029;-75
2023/12/27 05:43:00;;;;;;;69.80;62.35;;;2.10;99.90;;;;;;5014342;28;20103;-76
2023/12/27 05:45:25;;;;;;;64.03;57.20;;;2.20;99.90;;;;;;5014137;28;20040;-76
2023/12/27 05:47:52;;;;;;;69.93;62.70;;;2.20;99.90;;;;;;5029922;28;20463;-76
2023/12/27 05:50:17;;;;;;;63.78;57.05;;;2.20;99.90;;;;;;5009130;28;20054;-76
2023/12/27 05:52:43;;;;;;;65.38;58.45;;;2.20;99.90;;;;;;5013897;28;20496;-76
2023/12/27 05:55:09;;;;;;;60.92;54.13;;;2.30;99.90;;;;;;5014007;28;20411;-76
2023/12/27 05:57:35;;;;;;;71.85;64.15;;;2.30;99.90;;;;;;5013498;28;20030;-76
2023/12/27 06:00:01;;;;;;;112.40;89.65;;;2.40;99.90;;;;;;5029828;28;20314;-77
2023/12/27 06:02:26;;;;;;;26.95;14.90;;;2.40;99.90;;;;;;5014004;28;20044;-76
2023/12/27 06:04:52;;;;;;;31.33;14.20;;;2.40;99.90;;;;;;5014061;28;20394;-77
2023/12/27 06:07:17;;;;;;;25.88;12.75;;;2.40;99.90;;;;;;5013013;28;20037;-76
2023/12/27 06:09:43;;;;;;;79.13;66.90;;;2.30;99.90;;;;;;5010412;28;20404;-76
2023/12/27 06:12:09;;;;;;;112.22;85.50;;;2.40;99.90;;;;;;5013010;28;20400;-77
2023/12/27 06:14:35;;;;;;;117.85;80.90;;;2.50;99.90;;;;;;5004947;28;20076;-77
2023/12/27 06:17:01;;;;;;;93.68;72.45;;;2.50;99.90;;;;;;5009369;28;20034;-76
2023/12/27 06:19:28;;;;;;;65.43;56.83;;;2.50;99.90;;;;;;5027885;28;20381;-76
2023/12/27 06:21:53;;;;;;;94.80;68.53;;;2.50;99.90;;;;;;4997664;28;20068;-76
2023/12/27 06:24:19;;;;;;;79.22;63.58;;;2.50;99.90;;;;;;5013611;28;20033;-77
2023/12/27 06:26:45;;;;;;;27.25;14.13;;;2.60;99.90;;;;;;5029767;28;20446;-76
2023/12/27 06:29:11;;;;;;;87.63;66.10;;;2.60;99.90;;;;;;5030091;28;20098;-77
2023/12/27 06:31:36;;;;;;;82.65;63.97;;;2.60;99.90;;;;;;4996995;28;20049;-76
2023/12/27 06:34:02;;;;;;;91.63;71.70;;;2.70;99.90;;;;;;5013212;28;20534;-76
2023/12/27 06:36:28;;;;;;;82.20;64.40;;;2.70;99.90;;;;;;5008338;28;20037;-77
2023/12/27 06:38:53;;;;;;;74.60;60.47;;;2.80;99.90;;;;;;5015911;28;20073;-76
2023/12/27 06:41:19;;;;;;;91.68;69.70;;;2.80;99.90;;;;;;5016187;28;20117;-76
2023/12/27 06:43:45;;;;;;;77.72;63.95;;;2.80;99.90;;;;;;5016212;28;20042;-76
2023/12/27 06:46:11;;;;;;;85.72;64.32;;;2.90;99.90;;;;;;5016283;28;20049;-76
2023/12/27 06:48:36;;;;;;;62.95;52.42;;;2.90;99.90;;;;;;5016244;28;20092;-75
2023/12/27 06:51:05;;;;;;;90.78;69.63;;;3.00;99.90;;;;;;5015863;28;20454;-77
2023/12/27 06:53:30;;;;;;;81.40;63.85;;;3.00;99.90;;;;;;5032819;28;20037;-76
2023/12/27 06:55:56;;;;;;;81.32;66.25;;;3.00;99.90;;;;;;5016378;28;20454;-76
2023/12/27 06:58:22;;;;;;;81.70;64.28;;;3.00;99.90;;;;;;5016566;28;20260;-77
2023/12/27 07:00:47;;;;;;;91.28;68.35;;;3.10;99.90;;;;;;5030541;28;20041;-76
2023/12/27 07:03:13;;;;;;;90.57;67.32;;;3.10;99.90;;;;;;5015712;28;20033;-75
2023/12/27 07:05:39;;;;;;;103.82;73.57;;;3.20;99.90;;;;;;5029527;28;20394;-76
2023/12/27 07:08:05;;;;;;;94.85;69.93;;;3.20;99.90;;;;;;5013270;28;20049;-77
2023/12/27 07:10:31;;;;;;;50.65;44.17;;;3.20;99.90;;;;;;4996730;28;20048;-75
2023/12/27 07:12:57;;;;;;;92.43;67.72;;;3.20;99.90;;;;;;5008097;28;20041;-77
2023/12/27 07:15:23;;;;;;;62.47;49.97;;;3.30;99.90;;;;;;5015532;28;20061;-76
2023/12/27 07:17:49;;;;;;;87.32;64.65;;;3.40;99.90;;;;;;5015950;28;20034;-76
2023/12/27 07:20:15;;;;;;;63.45;51.35;;;3.40;99.90;;;;;;5031804;28;20033;-77
2023/12/27 07:22:40;;;;;;;74.50;58.35;;;3.30;99.90;;;;;;5014287;28;20049;-77
2023/12/27 07:25:06;;;;;;;87.90;61.97;;;3.50;99.90;;;;;;5032328;28;20069;-76
2023/12/27 07:27:32;;;;;;;47.97;39.70;;;3.50;99.90;;;;;;5015764;28;20112;-76
2023/12/27 07:29:58;;;;;;;91.70;63.00;;;3.50;99.90;;;;;;5015154;28;20112;-76
2023/12/27 07:32:26;;;;;;;56.70;45.92;;;3.50;99.90;;;;;;5015348;28;20041;-77
2023/12/27 07:34:57;;;;;;;81.53;56.67;;;3.60;99.90;;;;;;5014300;28;20037;-77
2023/12/27 07:37:24;;;;;;;84.55;59.15;;;3.50;99.90;;;;;;5015182;28;20442;-76
2023/12/27 07:39:49;;;;;;;84.00;55.92;;;3.60;99.90;;;;;;5015663;28;20044;-76
2023/12/27 07:42:16;;;;;;;73.20;52.42;;;3.60;99.90;;;;;;5015300;28;20042;-77
2023/12/27 07:44:42;;;;;;;62.90;46.88;;;3.60;99.90;;;;;;5015285;28;20041;-77
2023/12/27 07:47:07;;;;;;;81.35;52.33;;;3.60;99.90;;;;;;5015206;28;20048;-76
2023/12/27 07:49:36;;;;;;;59.40;44.03;;;3.70;99.90;;;;;;5014079;28;20501;-77
2023/12/27 07:52:05;;;;;;;55.08;40.38;;;3.70;99.90;;;;;;5013547;28;20388;-78
2023/12/27 07:54:38;;;;;;;54.03;39.53;;;3.70;99.90;;;;;;5015498;28;20045;-77
2023/12/27 08:01:30;;;;;;;53.85;37.25;;;3.80;99.90;;;;;;4972400;28;20516;-76
2023/12/27 08:04:16;;;;;;;42.65;31.35;;;3.80;99.90;;;;;;5025523;28;20044;-77
2023/12/27 08:07:09;;;;;;;39.05;27.52;;;3.80;99.90;;;;;;5013541;28;20048;-76
2023/12/27 08:09:51;;;;;;;53.20;36.03;;;3.90;99.90;;;;;;5008550;28;20132;-76
2023/12/27 08:12:16;;;;;;;35.78;26.25;;;3.90;99.90;;;;;;5029332;28;20037;-76
2023/12/27 08:14:43;;;;;;;44.65;29.85;;;3.90;99.90;;;;;;5014128;28;20044;-76
2023/12/27 08:17:11;;;;;;;31.38;22.42;;;3.90;99.90;;;;;;5014656;28;20038;-76
2023/12/27 08:19:44;;;;;;;31.67;21.95;;;3.90;99.90;;;;;;5014799;28;20403;-78
2023/12/27 08:22:13;;;;;;;30.35;20.95;;;3.90;99.90;;;;;;5012376;28;20056;-77
2023/12/27 08:24:38;;;;;;;32.97;21.45;;;4.00;99.90;;;;;;5012593;28;20076;-76
2023/12/27 08:27:07;;;;;;;35.53;21.73;;;4.00;99.90;;;;;;5014359;28;20069;-77
2023/12/27 08:29:32;;;;;;;30.65;19.15;;;4.10;99.90;;;;;;5014275;28;20041;-77
2023/12/27 08:32:00;;;;;;;28.48;19.60;;;4.10;99.90;;;;;;5013938;28;20037;-77
2023/12/27 08:34:25;;;;;;;28.77;19.83;;;4.10;99.90;;;;;;5014205;28;20415;-76
2023/12/27 08:36:51;;;;;;;28.33;19.77;;;4.10;99.90;;;;;;5012996;28;20041;-76
2023/12/27 08:39:17;;;;;;;37.13;22.90;;;4.10;99.90;;;;;;5014337;28;20476;-77
2023/12/27 08:41:42;;;;;;;28.20;19.58;;;4.10;99.90;;;;;;5013752;28;20044;-76
2023/12/27 08:44:08;;;;;;;27.95;20.42;;;4.10;99.90;;;;;;5013340;28;20041;-77
2023/12/27 08:46:49;;;;;;;32.05;21.55;;;4.20;99.90;;;;;;5013717;28;20037;-76
2023/12/27 08:49:17;;;;;;;31.17;22.98;;;4.20;99.90;;;;;;5014218;28;20046;-77
2023/12/27 08:51:45;;;;;;;35.83;25.65;;;4.20;99.90;;;;;;5013028;28;20044;-76
2023/12/27 08:54:14;;;;;;;41.70;29.00;;;4.30;99.90;;;;;;5008496;28;20099;-77
2023/12/27 08:56:42;;;;;;;30.48;24.15;;;4.30;99.90;;;;;;4997371;28;20247;-76
2023/12/27 08:59:15;;;;;;;37.45;28.00;;;4.30;99.90;;;;;;5014303;28;20029;-76
2023/12/27 09:01:44;;;;;;;31.02;24.95;;;4.40;99.90;;;;;;5002201;28;20038;-77
2023/12/27 09:04:17;;;;;;;43.63;32.33;;;4.40;99.90;;;;;;5011135;28;20177;-76
2023/12/27 09:06:45;;;;;;;37.20;28.70;;;4.50;99.90;;;;;;5005653;28;20041;-76
2023/12/27 09:09:11;;;;;;;32.63;25.20;;;4.50;99.90;;;;;;5013913;28;20048;-76
2023/12/27 09:11:40;;;;;;;31.55;26.00;;;4.60;99.90;;;;;;5011749;28;20444;-76
2023/12/27 09:14:06;;;;;;;45.30;33.88;;;4.60;99.90;;;;;;5012209;28;20038;-76
2023/12/27 09:16:31;;;;;;;47.33;34.08;;;4.60;99.90;;;;;;5015989;28;20043;-76
2023/12/27 09:18:59;;;;;;;38.22;31.20;;;4.60;99.90;;;;;;5018936;28;20116;-76
2023/12/27 09:21:27;;;;;;;45.10;33.45;;;4.60;99.90;;;;;;5025338;28;20042;-76
2023/12/27 09:23:54;;;;;;;48.83;35.25;;;4.70;99.90;;;;;;5008357;28;20045;-77
2023/12/27 09:26:20;;;;;;;58.13;37.55;;;4.70;99.90;;;;;;5010642;28;20131;-77
2023/12/27 09:28:48;;;;;;;52.30;37.85;;;4.70;99.90;;;;;;5013360;28;20053;-76
2023/12/27 09:31:17;;;;;;;41.10;32.72;;;4.70;99.90;;;;;;5014404;28;20033;-76
2023/12/27 09:33:45;;;;;;;49.90;35.80;;;4.70;99.90;;;;;;5014017;28;20121;-77
2023/12/27 09:36:13;;;;;;;58.38;39.20;;;4.80;99.90;;;;;;5013988;28;20403;-77
2023/12/27 09:38:53;;;;;;;56.72;40.75;;;4.80;99.90;;;;;;5000251;28;20125;-77
2023/12/27 09:41:28;;;;;;;47.35;33.03;;;4.80;99.90;;;;;;5013998;28;20096;-77
2023/12/27 09:44:07;;;;;;;49.63;36.30;;;4.80;99.90;;;;;;5013649;28;20026;-78
2023/12/27 09:46:42;;;;;;;47.42;37.67;;;4.90;99.90;;;;;;5013207;28;20046;-77
2023/12/27 09:49:54;;;;;;;42.95;30.80;;;4.80;99.90;;;;;;5016224;28;20495;-78
2023/12/27 09:52:59;;;;;;;54.90;38.40;;;4.90;99.90;;;;;;5011144;28;20085;-77
2023/12/27 09:55:49;;;;;;;54.97;38.60;;;4.90;99.90;;;;;;5018374;28;20129;-77
2023/12/27 09:59:01;;;;;;;53.17;37.15;;;4.90;99.90;;;;;;5018430;28;20124;-78
2023/12/27 10:02:14;;;;;;;57.83;40.08;;;4.90;99.90;;;;;;5015718;28;20049;-79
2023/12/27 10:05:14;;;;;;;56.85;38.42;;;5.00;99.90;;;;;;5029507;28;20050;-81
2023/12/27 10:07:42;;;;;;;49.33;35.05;;;5.00;99.90;;;;;;5027938;28;20060;-79
2023/12/27 10:10:10;;;;;;;44.00;32.95;;;5.10;99.90;;;;;;5015607;28;20479;-78
2023/12/27 10:12:43;;;;;;;56.92;39.55;;;5.00;99.90;;;;;;5004193;28;20511;-77
2023/12/27 10:15:09;;;;;;;54.75;39.22;;;5.10;99.90;;;;;;4997698;28;20042;-77
2023/12/27 10:17:34;;;;;;;63.63;39.78;;;5.10;99.90;;;;;;4998467;28;20045;-77
2023/12/27 10:20:06;;;;;;;65.93;41.65;;;5.10;99.90;;;;;;5002021;28;20473;-78
2023/12/27 10:22:32;;;;;;;58.05;38.35;;;5.20;99.90;;;;;;5004071;28;20041;-78
2023/12/27 10:24:59;;;;;;;70.93;44.67;;;5.20;99.90;;;;;;4998008;28;20033;-77
2023/12/27 10:27:28;;;;;;;72.47;44.28;;;5.30;99.90;;;;;;5015056;28;20134;-78
2023/12/27 10:29:54;;;;;;;52.72;38.35;;;5.20;99.90;;;;;;5017567;28;20049;-78
2023/12/27 10:32:19;;;;;;;66.97;45.15;;;5.30;99.90;;;;;;5010341;28;20049;-78
2023/12/27 10:34:48;;;;;;;77.47;48.83;;;5.30;99.90;;;;;;5000305;28;20069;-78
2023/12/27 10:37:16;;;;;;;54.00;40.75;;;5.30;99.90;;;;;;5017747;28;20053;-79
2023/12/27 10:40:32;;;;;;;77.97;49.15;;;5.40;99.90;;;;;;5016470;28;20041;-79
2023/12/27 10:43:43;;;;;;;90.97;52.90;;;5.40;99.90;;;;;;4993396;28;20545;-81
2023/12/27 10:46:43;;;;;;;;;;;;;;;;;;;;;
2023/12/27 10:49:14;;;;;;;70.35;49.25;;;5.40;99.90;;;;;;5034126;28;20068;-80
2023/12/27 10:51:40;;;;;;;77.03;53.22;;;5.40;99.90;;;;;;5012069;28;20428;-77
2023/12/27 10:54:07;;;;;;;81.43;56.38;;;5.50;99.90;;;;;;5009918;28;20045;-77
2023/12/27 10:56:40;;;;;;;77.93;54.22;;;5.40;99.90;;;;;;5010409;28;20033;-77
2023/12/27 10:59:09;;;;;;;100.95;59.72;;;5.50;99.90;;;;;;5009447;28;20042;-77
2023/12/27 11:01:38;;;;;;;84.60;55.55;;;5.50;99.90;;;;;;5013748;28;20041;-78
2023/12/27 11:04:08;;;;;;;82.50;56.17;;;5.60;99.90;;;;;;5016658;28;20435;-78
2023/12/27 11:06:39;;;;;;;97.50;62.13;;;5.60;99.90;;;;;;5006458;28;20555;-78
2023/12/27 11:09:09;;;;;;;76.38;56.70;;;5.60;99.90;;;;;;5008167;28;20069;-78
2023/12/27 11:11:39;;;;;;;140.70;72.53;;;5.60;99.90;;;;;;5010508;28;20037;-76
2023/12/27 11:14:08;;;;;;;103.82;63.25;;;5.60;99.90;;;;;;5010474;28;20102;-76
2023/12/27 11:16:40;;;;;;;114.88;65.78;;;5.60;99.90;;;;;;5027122;28;20121;-78
2023/12/27 11:19:13;;;;;;;89.53;61.85;;;5.60;99.90;;;;;;5014715;28;20060;-78
2023/12/27 11:21:56;;;;;;;107.78;65.90;;;5.70;99.90;;;;;;5009250;28;20037;-81
2023/12/27 11:24:40;;;;;;;;;;;;;;;;;;;;;
2023/12/27 11:27:20;;;;;;;;;;;5.70;99.90;;;;;;5017978;28;20129;-77
2023/12/27 11:29:59;;;;;;;82.72;59.42;;;5.70;99.90;;;;;;5007721;28;20431;-78
2023/12/27 11:32:56;;;;;;;102.88;64.30;;;5.70;99.90;;;;;;5030142;28;20171;-78
2023/12/27 11:35:52;;;;;;;99.95;64.95;;;5.70;99.90;;;;;;5008830;28;20033;-80
2023/12/27 11:38:46;;;;;;;106.80;66.50;;;5.70;99.90;;;;;;4976405;28;20501;-81
2023/12/27 12:28:06;;;;;;;;;;;;;;;;;;;;;
2023/12/27 12:31:34;;;;;;;;;;;;;;;;;;;;;
2023/12/27 12:35:41;;;;;;;;;;;;;;;;;;;;;
2023/12/27 12:45:32;;;;;;;102.10;69.07;;;6.50;99.90;;;;;;4804056;29;20094;-83
2023/12/27 13:07:13;;;;;;;92.13;66.32;;;6.70;99.90;;;;;;4759135;30;20066;-83
2023/12/27 13:35:09;;;;;;;59.97;50.88;;;7.10;99.90;;;;;;4928616;29;20578;-82
2023/12/27 13:45:49;;;;;;;49.97;41.47;;;7.30;99.90;;;;;;5042746;23;20058;-82
2023/12/27 13:48:22;;;;;;;43.80;37.85;;;7.30;99.90;;;;;;4919796;29;20054;-82
2023/12/27 13:51:22;;;;;;;41.05;36.53;;;7.40;99.90;;;;;;4913669;29;20036;-83
2023/12/27 13:54:20;;;;;;;49.40;38.10;;;7.40;99.90;;;;;;4915650;29;20066;-82
2023/12/27 13:56:59;;;;;;;39.05;33.15;;;7.50;99.90;;;;;;4933694;29;20051;-83
2023/12/27 14:00:33;;;;;;;34.08;29.50;;;7.40;99.90;;;;;;4952510;29;20056;-83
2023/12/27 14:03:52;;;;;;;32.03;28.50;;;7.50;99.90;;;;;;4880977;29;20102;-83
2023/12/27 14:07:14;;;;;;;35.08;26.23;;;7.50;99.90;;;;;;4817818;29;20132;-83
2023/12/27 14:09:46;;;;;;;25.77;23.05;;;7.50;99.90;;;;;;4884863;29;20496;-83
2023/12/27 14:12:55;;;;;;;29.27;24.08;;;7.50;99.90;;;;;;4896853;29;20039;-84
2023/12/27 14:19:15;;;;;;;29.55;23.77;;;7.60;99.90;;;;;;4933296;29;20045;-83
2023/12/27 14:22:09;;;;;;;34.67;25.52;;;7.60;99.90;;;;;;4916795;29;20481;-83
2023/12/27 14:25:54;;;;;;;22.40;20.00;;;7.60;99.90;;;;;;4939726;29;20512;-83
2023/12/27 14:28:39;;;;;;;;;;;7.60;99.90;;;;;;4878697;29;20044;-83
2023/12/27 14:38:30;;;;;;;21.05;17.60;;;7.70;99.90;;;;;;4881936;29;20123;-81
2023/12/27 14:44:50;;;;;;;18.75;16.55;;;7.70;99.90;;;;;;4821057;29;20652;-85
2023/12/27 14:48:02;;;;;;;15.52;13.45;;;7.70;99.90;;;;;;4804140;29;20150;-86
2023/12/27 14:58:31;;;;;;;16.65;14.07;;;7.70;99.90;;;;;;4740365;30;20093;-82
2023/12/27 15:00:56;;;;;;;20.00;16.23;;;7.70;99.90;;;;;;4778314;29;20074;-86
2023/12/27 15:03:22;;;;;;;19.95;16.08;;;7.70;99.90;;;;;;4879929;29;20414;-84
2023/12/27 15:05:48;;;;;;;17.20;14.40;;;7.70;99.90;;;;;;4926130;29;20126;-83
2023/12/27 15:08:14;;;;;;;18.27;16.10;;;7.70;99.90;;;;;;4910869;29;20043;-83
2023/12/27 15:10:40;;;;;;;17.95;14.45;;;7.70;99.90;;;;;;4909962;29;20035;-84
2023/12/27 15:13:06;;;;;;;17.60;15.00;;;7.70;99.90;;;;;;4920750;29;20051;-84
2023/12/27 15:15:31;;;;;;;20.58;16.00;;;7.70;99.90;;;;;;4923600;29;20498;-84
2023/12/27 15:17:58;;;;;;;24.73;16.73;;;7.70;99.90;;;;;;4922187;29;20039;-84